createdAt,value
2024-01-28T00:01:19.025Z,5.15
2024-01-28T00:03:45.723Z,6.00
2024-01-28T00:06:12.393Z,4.60
2024-01-28T00:08:39.045Z,4.70
2024-01-28T00:11:05.687Z,4.75
2024-01-28T00:13:35.403Z,4.18
2024-01-28T00:16:02.385Z,4.60
2024-01-28T00:18:29.155Z,4.80
2024-01-28T00:20:55.756Z,4.40
2024-01-28T00:23:22.247Z,4.28
2024-01-28T00:25:48.690Z,3.83
2024-01-28T00:28:15.195Z,4.93
2024-01-28T00:30:42.190Z,4.53
2024-01-28T00:33:09.018Z,4.47
2024-01-28T00:35:35.850Z,4.63
2024-01-28T00:38:03.979Z,4.35
2024-01-28T00:40:30.832Z,4.07
2024-01-28T00:42:57.296Z,4.30
2024-01-28T00:45:23.740Z,4.72
2024-01-28T00:47:50.529Z,3.80
2024-01-28T00:50:17.124Z,4.43
2024-01-28T00:52:45.231Z,4.63
2024-01-28T00:55:12.167Z,3.40
2024-01-28T00:57:38.853Z,3.63
2024-01-28T01:00:06.479Z,3.80
2024-01-28T01:02:33.050Z,4.05
2024-01-28T01:04:59.694Z,4.00
2024-01-28T01:07:27.904Z,3.40
2024-01-28T01:09:54.505Z,3.35
2024-01-28T01:12:21.501Z,3.92
2024-01-28T01:14:47.996Z,3.78
2024-01-28T01:17:14.471Z,3.65
2024-01-28T01:19:41.096Z,3.80
2024-01-28T01:22:08.042Z,3.30
2024-01-28T01:24:34.672Z,3.60
2024-01-28T01:27:01.156Z,3.55
2024-01-28T01:29:27.678Z,3.75
2024-01-28T01:31:56.114Z,4.33
2024-01-28T01:34:22.744Z,3.83
2024-01-28T01:36:49.430Z,4.15
2024-01-28T01:39:17.908Z,3.80
2024-01-28T01:41:48.040Z,4.03
2024-01-28T01:44:14.951Z,3.93
2024-01-28T01:46:43.649Z,3.60
2024-01-28T01:49:11.604Z,3.90
2024-01-28T01:51:38.957Z,3.22
2024-01-28T01:54:05.890Z,3.75
2024-01-28T01:56:35.655Z,3.10
2024-01-28T01:59:04.233Z,3.58
2024-01-28T02:01:32.202Z,3.97
2024-01-28T02:04:00.241Z,4.15
2024-01-28T02:06:28.509Z,4.68
2024-01-28T02:08:56.171Z,3.53
2024-01-28T02:11:23.854Z,4.20
2024-01-28T02:13:50.701Z,4.10
2024-01-28T02:16:17.167Z,3.50
2024-01-28T02:18:44.023Z,4.32
2024-01-28T02:21:10.715Z,4.00
2024-01-28T02:23:37.384Z,3.97
2024-01-28T02:26:03.910Z,3.72
2024-01-28T02:28:30.367Z,3.63
2024-01-28T02:30:56.831Z,3.45
2024-01-28T02:33:23.802Z,3.63
2024-01-28T02:35:50.390Z,3.50
2024-01-28T02:38:16.878Z,3.53
2024-01-28T02:40:44.593Z,3.00
2024-01-28T02:43:11.333Z,3.47
2024-01-28T02:45:37.899Z,3.00
2024-01-28T02:48:04.685Z,3.15
2024-01-28T02:50:31.195Z,4.13
2024-01-28T02:52:57.840Z,3.15
2024-01-28T02:55:24.270Z,3.17
2024-01-28T02:57:50.906Z,3.03
2024-01-28T03:00:18.107Z,3.88
2024-01-28T03:02:44.617Z,3.58
2024-01-28T03:05:11.915Z,3.42
2024-01-28T03:07:38.792Z,4.03
2024-01-28T03:10:06.305Z,3.03
2024-01-28T03:12:32.882Z,4.15
2024-01-28T03:14:59.360Z,3.15
2024-01-28T03:17:25.823Z,3.58
2024-01-28T03:19:52.298Z,2.97
2024-01-28T03:22:18.833Z,3.87
2024-01-28T03:24:45.435Z,3.22
2024-01-28T03:27:12.092Z,3.60
2024-01-28T03:29:38.635Z,2.95
2024-01-28T03:32:05.812Z,3.03
2024-01-28T03:34:32.493Z,3.03
2024-01-28T03:36:59.157Z,3.83
2024-01-28T03:39:25.704Z,2.97
2024-01-28T03:41:52.234Z,3.20
2024-01-28T03:44:23.867Z,3.60
2024-01-28T03:46:50.982Z,2.97
2024-01-28T03:49:17.563Z,3.70
2024-01-28T03:51:44.237Z,3.10
2024-01-28T03:54:10.845Z,3.67
2024-01-28T03:56:38.530Z,3.15
2024-01-28T03:59:05.065Z,3.30
2024-01-28T04:01:33.109Z,3.13
2024-01-28T04:04:00.193Z,4.03
2024-01-28T04:06:27.244Z,3.17
2024-01-28T04:08:56.148Z,3.40
2024-01-28T04:11:26.820Z,3.03
2024-01-28T04:13:57.034Z,2.78
2024-01-28T04:16:24.228Z,2.95
2024-01-28T04:18:51.495Z,3.13
2024-01-28T04:21:18.279Z,2.90
2024-01-28T04:23:47.761Z,3.10
2024-01-28T04:26:14.570Z,3.20
2024-01-28T04:28:42.097Z,3.05
2024-01-28T04:31:08.932Z,3.03
2024-01-28T04:33:36.016Z,3.25
2024-01-28T04:36:02.653Z,3.57
2024-01-28T04:38:29.384Z,3.08
2024-01-28T04:40:55.880Z,3.25
2024-01-28T04:43:22.317Z,2.67
2024-01-28T04:45:49.630Z,3.35
2024-01-28T04:48:17.049Z,2.40
2024-01-28T04:50:43.697Z,3.17
2024-01-28T04:53:10.168Z,2.80
2024-01-28T04:55:36.749Z,2.67
2024-01-28T04:58:03.804Z,2.65
2024-01-28T05:00:30.428Z,3.20
2024-01-28T05:02:57.946Z,2.97
2024-01-28T05:05:24.714Z,3.25
2024-01-28T05:07:51.336Z,3.38
2024-01-28T05:10:18.015Z,2.65
2024-01-28T05:12:46.538Z,2.43
2024-01-28T05:15:17.559Z,2.58
2024-01-28T05:17:45.738Z,3.28
2024-01-28T05:20:13.224Z,2.50
2024-01-28T05:22:39.965Z,2.97
2024-01-28T05:25:07.159Z,2.60
2024-01-28T05:27:34.154Z,3.08
2024-01-28T05:30:00.722Z,2.47
2024-01-28T05:32:27.678Z,2.78
2024-01-28T05:34:56.376Z,3.13
2024-01-28T05:37:23.181Z,2.80
2024-01-28T05:39:49.725Z,2.65
2024-01-28T05:42:16.327Z,3.10
2024-01-28T05:44:42.829Z,3.30
2024-01-28T05:47:09.342Z,3.20
2024-01-28T05:49:35.868Z,2.97
2024-01-28T05:52:02.422Z,3.20
2024-01-28T05:54:31.294Z,3.00
2024-01-28T05:56:57.753Z,2.78
2024-01-28T05:59:24.233Z,3.42
2024-01-28T06:01:51.017Z,2.53
2024-01-28T06:04:17.686Z,2.72
2024-01-28T06:06:44.195Z,3.00
2024-01-28T06:09:11.583Z,2.53
2024-01-28T06:11:38.103Z,2.88
2024-01-28T06:14:04.563Z,2.40
2024-01-28T06:16:30.997Z,2.97
2024-01-28T06:18:57.986Z,3.40
2024-01-28T06:21:24.543Z,3.25
2024-01-28T06:23:51.187Z,2.63
2024-01-28T06:26:19.193Z,2.80
2024-01-28T06:28:49.565Z,2.58
2024-01-28T06:31:16.529Z,2.70
2024-01-28T06:33:44.431Z,2.95
2024-01-28T06:36:19.349Z,3.08
2024-01-28T06:38:45.832Z,2.63
2024-01-28T06:41:12.245Z,2.33
2024-01-28T06:43:38.647Z,3.22
2024-01-28T06:46:05.964Z,2.33
2024-01-28T06:48:32.896Z,3.10
2024-01-28T06:50:59.426Z,2.63
2024-01-28T06:53:25.838Z,2.50
2024-01-28T06:55:52.296Z,3.13
2024-01-28T06:58:18.849Z,3.00
2024-01-28T07:00:45.413Z,2.85
2024-01-28T07:03:11.993Z,2.90
2024-01-28T07:05:39.487Z,2.60
2024-01-28T07:08:08.842Z,2.65
2024-01-28T07:10:35.232Z,3.35
2024-01-28T07:13:04.948Z,3.17
2024-01-28T07:15:31.753Z,2.63
2024-01-28T07:17:58.191Z,2.70
2024-01-28T07:20:25.039Z,2.78
2024-01-28T07:22:51.487Z,2.63
2024-01-28T07:25:18.291Z,2.70
2024-01-28T07:27:44.918Z,3.10
2024-01-28T07:30:11.573Z,3.13
2024-01-28T07:32:38.019Z,3.08
2024-01-28T07:35:05.552Z,3.03
2024-01-28T07:37:32.045Z,2.90
2024-01-28T07:39:58.496Z,2.93
2024-01-28T07:42:25.044Z,2.85
2024-01-28T07:44:51.503Z,3.22
2024-01-28T07:47:17.947Z,2.83
2024-01-28T07:49:44.428Z,2.80
2024-01-28T07:52:10.919Z,2.83
2024-01-28T07:54:37.582Z,2.50
2024-01-28T07:57:04.245Z,3.10
2024-01-28T07:59:30.750Z,2.78
2024-01-28T08:01:57.339Z,2.67
2024-01-28T08:04:23.933Z,2.83
2024-01-28T08:06:50.559Z,2.40
2024-01-28T08:09:17.482Z,2.85
2024-01-28T08:11:43.951Z,2.67
2024-01-28T08:14:10.808Z,2.55
2024-01-28T08:16:37.421Z,2.67
2024-01-28T08:19:05.932Z,2.72
2024-01-28T08:21:32.916Z,3.03
2024-01-28T08:23:59.507Z,3.08
2024-01-28T08:26:25.954Z,3.00
2024-01-28T08:28:53.122Z,2.60
2024-01-28T08:31:20.015Z,2.80
2024-01-28T08:33:46.533Z,2.70
2024-01-28T08:36:13.122Z,2.47
2024-01-28T08:38:39.552Z,3.35
2024-01-28T08:41:06.049Z,2.70
2024-01-28T08:43:32.537Z,2.83
2024-01-28T08:46:02.449Z,3.03
2024-01-28T08:48:29.040Z,2.85
2024-01-28T08:50:55.536Z,2.67
2024-01-28T08:53:22.183Z,2.70
2024-01-28T08:55:48.621Z,2.90
2024-01-28T08:58:15.206Z,2.95
2024-01-28T09:00:41.702Z,3.03
2024-01-28T09:03:08.266Z,2.90
2024-01-28T09:05:34.820Z,2.77
2024-01-28T09:08:01.829Z,3.20
2024-01-28T09:10:28.290Z,3.40
2024-01-28T09:12:54.810Z,2.70
2024-01-28T09:15:21.483Z,3.15
2024-01-28T09:17:48.001Z,2.63
2024-01-28T09:20:14.856Z,2.63
2024-01-28T09:22:41.537Z,2.83
2024-01-28T09:25:08.490Z,3.45
2024-01-28T09:27:35.009Z,2.40
2024-01-28T09:30:02.732Z,2.57
2024-01-28T09:32:29.357Z,3.00
2024-01-28T09:34:55.870Z,2.67
2024-01-28T09:37:22.490Z,2.72
2024-01-28T09:39:49.175Z,2.90
2024-01-28T09:42:24.681Z,2.43
2024-01-28T09:44:51.502Z,2.72
2024-01-28T09:47:21.620Z,2.72
2024-01-28T09:49:48.825Z,2.40
2024-01-28T09:52:15.740Z,2.42
2024-01-28T09:54:48.664Z,2.53
2024-01-28T09:57:16.564Z,2.60
2024-01-28T09:59:44.439Z,2.47
2024-01-28T10:02:13.115Z,3.15
2024-01-28T10:04:41.447Z,2.78
2024-01-28T10:07:10.755Z,2.57
2024-01-28T10:09:38.231Z,2.85
2024-01-28T10:12:05.243Z,2.75
2024-01-28T10:14:31.905Z,3.22
2024-01-28T10:16:58.685Z,2.92
2024-01-28T10:19:25.545Z,2.50
2024-01-28T10:21:52.644Z,2.67
2024-01-28T10:24:19.908Z,3.05
2024-01-28T10:26:46.499Z,2.78
2024-01-28T10:29:14.317Z,2.75
2024-01-28T10:31:41.457Z,2.80
2024-01-28T10:34:09.772Z,2.53
2024-01-28T10:36:37.391Z,2.30
2024-01-28T10:39:05.760Z,2.63
2024-01-28T10:41:33.675Z,2.28
2024-01-28T10:44:09.300Z,2.43
2024-01-28T10:46:40.654Z,2.28
2024-01-28T10:49:09.434Z,2.60
2024-01-28T10:51:37.333Z,2.35
2024-01-28T10:54:11.037Z,2.53
2024-01-28T10:56:39.118Z,2.53
2024-01-28T10:59:05.904Z,2.58
2024-01-28T11:01:34.720Z,2.47
2024-01-28T11:04:03.542Z,2.40
2024-01-28T11:06:33.450Z,2.28
2024-01-28T11:09:01.261Z,2.77
2024-01-28T11:11:28.336Z,2.38
2024-01-28T11:13:56.834Z,2.20
2024-01-28T11:16:23.406Z,2.25
2024-01-28T11:19:08.645Z,2.50
2024-01-28T11:21:35.977Z,2.40
2024-01-28T11:24:09.945Z,2.88
2024-01-28T11:26:42.523Z,2.28
2024-01-28T11:29:11.885Z,2.58
2024-01-28T11:31:42.837Z,2.63
2024-01-28T11:34:23.668Z,1.90
2024-01-28T11:36:53.528Z,2.17
2024-01-28T11:39:45.738Z,2.53
2024-01-28T11:42:12.911Z,2.35
2024-01-28T11:44:42.839Z,2.05
2024-01-28T11:47:14.215Z,2.30
2024-01-28T11:49:43.274Z,2.28
2024-01-28T11:52:10.277Z,2.60
2024-01-28T11:54:37.679Z,2.20
2024-01-28T11:57:06.720Z,2.05
2024-01-28T11:59:35.117Z,2.50
2024-01-28T12:02:05.292Z,2.40
2024-01-28T12:04:32.721Z,2.35
2024-01-28T12:07:00.886Z,2.20
2024-01-28T12:09:30.993Z,2.42
2024-01-28T12:11:57.779Z,2.50
2024-01-28T12:14:24.337Z,2.45
2024-01-28T12:16:50.825Z,2.10
2024-01-28T12:19:19.516Z,2.70
2024-01-28T12:21:48.114Z,2.83
2024-01-28T12:24:14.663Z,1.80
2024-01-28T12:26:44.642Z,2.10
2024-01-28T12:29:11.180Z,2.13
2024-01-28T12:31:37.629Z,2.38
2024-01-28T12:34:14.606Z,2.03
2024-01-28T12:36:41.196Z,2.47
2024-01-28T12:39:07.906Z,2.15
2024-01-28T12:41:34.515Z,2.30
2024-01-28T12:44:01.015Z,1.83
2024-01-28T12:46:27.599Z,1.80
2024-01-28T12:48:54.503Z,2.20
2024-01-28T12:51:20.968Z,1.83
2024-01-28T12:53:52.234Z,1.88
2024-01-28T12:56:18.996Z,1.80
2024-01-28T12:58:45.511Z,2.20
2024-01-28T13:01:12.211Z,1.77
2024-01-28T13:03:38.819Z,2.08
2024-01-28T13:06:06.517Z,1.73
2024-01-28T13:08:33.031Z,1.67
2024-01-28T13:11:02.383Z,2.20
2024-01-28T13:13:29.511Z,1.80
2024-01-28T13:15:56.054Z,1.85
2024-01-28T13:18:30.353Z,1.30
2024-01-28T13:21:01.697Z,1.60
2024-01-28T13:23:28.226Z,1.63
2024-01-28T13:25:54.863Z,1.70
2024-01-28T13:28:21.418Z,1.83
2024-01-28T13:30:47.935Z,2.05
2024-01-28T13:33:14.590Z,1.55
2024-01-28T13:35:41.125Z,1.80
2024-01-28T13:38:07.729Z,1.60
2024-01-28T13:40:34.736Z,2.05
2024-01-28T13:43:01.206Z,1.90
2024-01-28T13:45:27.673Z,1.50
2024-01-28T13:47:54.202Z,1.88
2024-01-28T13:50:20.716Z,1.63
2024-01-28T13:52:47.156Z,1.55
2024-01-28T13:55:13.648Z,1.92
2024-01-28T13:57:40.268Z,1.70
2024-01-28T14:00:10.968Z,2.00
2024-01-28T14:02:40.056Z,1.73
2024-01-28T14:05:08.554Z,1.45
2024-01-28T14:07:35.963Z,1.42
2024-01-28T14:10:03.654Z,1.50
2024-01-28T14:12:30.759Z,1.80
2024-01-28T14:14:57.259Z,1.40
2024-01-28T14:17:23.851Z,1.67
2024-01-28T14:19:50.392Z,1.67
2024-01-28T14:22:16.849Z,2.22
2024-01-28T14:24:43.389Z,2.13
2024-01-28T14:27:10.274Z,2.00
2024-01-28T14:29:36.815Z,2.70
2024-01-28T14:32:03.753Z,2.70
2024-01-28T14:34:30.342Z,2.30
2024-01-28T14:36:57.189Z,2.97
2024-01-28T14:39:23.866Z,2.10
2024-01-28T14:41:51.868Z,2.63
2024-01-28T14:44:18.583Z,2.10
2024-01-28T14:46:45.117Z,2.15
2024-01-28T14:49:11.800Z,2.20
2024-01-28T14:51:40.427Z,2.40
2024-01-28T14:54:07.186Z,2.30
2024-01-28T14:56:33.844Z,2.20
2024-01-28T14:59:00.429Z,1.83
2024-01-28T15:01:27.099Z,1.88
2024-01-28T15:03:53.763Z,2.37
2024-01-28T15:06:20.682Z,2.15
2024-01-28T15:08:47.241Z,1.70
2024-01-28T15:11:13.772Z,1.85
2024-01-28T15:13:40.202Z,2.22
2024-01-28T15:16:07.826Z,1.60
2024-01-28T15:18:34.683Z,2.10
2024-01-28T15:21:01.644Z,2.03
2024-01-28T15:23:28.260Z,1.90
2024-01-28T15:25:54.671Z,1.60
2024-01-28T15:28:25.341Z,2.00
2024-01-28T15:30:58.837Z,1.90
2024-01-28T15:33:26.595Z,1.95
2024-01-28T15:35:54.314Z,2.15
2024-01-28T15:38:21.135Z,2.17
2024-01-28T15:40:47.729Z,1.73
2024-01-28T15:43:14.375Z,2.05
2024-01-28T15:45:40.947Z,1.70
2024-01-28T15:48:10.529Z,1.98
2024-01-28T15:50:37.771Z,1.55
2024-01-28T15:53:04.439Z,2.20
2024-01-28T15:55:32.195Z,1.60
2024-01-28T15:58:00.087Z,1.73
2024-01-28T16:00:26.770Z,2.28
2024-01-28T16:02:53.345Z,2.15
2024-01-28T16:05:19.897Z,2.10
2024-01-28T16:07:46.879Z,2.03
2024-01-28T16:10:13.907Z,2.40
2024-01-28T16:12:40.924Z,2.10
2024-01-28T16:15:08.216Z,2.10
2024-01-28T16:17:36.333Z,2.20
2024-01-28T16:20:04.723Z,1.92
2024-01-28T16:22:31.259Z,2.42
2024-01-28T16:24:57.792Z,1.90
2024-01-28T16:27:24.454Z,2.20
2024-01-28T16:29:50.918Z,2.07
2024-01-28T16:32:17.394Z,2.55
2024-01-28T16:34:44.041Z,2.00
2024-01-28T16:37:10.637Z,2.00
2024-01-28T16:39:37.206Z,2.03
2024-01-28T16:42:03.827Z,1.83
2024-01-28T16:44:30.255Z,2.05
2024-01-28T16:46:56.776Z,2.15
2024-01-28T16:49:25.383Z,2.17
2024-01-28T16:51:52.322Z,2.20
2024-01-28T16:54:18.999Z,1.87
2024-01-28T16:56:45.588Z,2.22
2024-01-28T16:59:12.492Z,2.35
2024-01-28T17:01:39.017Z,2.30
2024-01-28T17:04:05.567Z,2.40
2024-01-28T17:06:32.116Z,2.40
2024-01-28T17:08:58.633Z,2.03
2024-01-28T17:11:25.183Z,2.50
2024-01-28T17:13:51.702Z,2.30
2024-01-28T17:16:18.553Z,2.42
2024-01-28T17:18:45.771Z,2.23
2024-01-28T17:21:12.396Z,2.28
2024-01-28T17:23:38.825Z,2.45
2024-01-28T17:26:05.514Z,2.45
2024-01-28T17:28:31.948Z,2.38
2024-01-28T17:31:00.151Z,2.40
2024-01-28T17:33:27.076Z,2.35
2024-01-28T17:35:53.726Z,2.30
2024-01-28T17:38:20.519Z,2.38
2024-01-28T17:40:47.033Z,2.80
2024-01-28T17:43:13.733Z,2.60
2024-01-28T17:45:40.262Z,2.80
2024-01-28T17:48:07.059Z,2.72
2024-01-28T17:50:33.577Z,2.67
2024-01-28T17:53:01.385Z,2.85
2024-01-28T17:55:27.947Z,2.70
2024-01-28T17:57:54.475Z,2.75
2024-01-28T18:00:21.116Z,2.75
2024-01-28T18:02:47.756Z,2.72
2024-01-28T18:05:14.430Z,2.25
2024-01-28T18:07:42.755Z,2.63
2024-01-28T18:10:09.560Z,2.85
2024-01-28T18:12:37.439Z,2.72
2024-01-28T18:15:04.386Z,2.80
2024-01-28T18:17:31.007Z,2.55
2024-01-28T18:19:57.556Z,2.50
2024-01-28T18:22:24.045Z,3.15
2024-01-28T18:24:51.185Z,3.25
2024-01-28T18:27:17.889Z,3.20
2024-01-28T18:29:44.840Z,2.83
2024-01-28T18:32:11.347Z,2.93
2024-01-28T18:34:38.021Z,2.72
2024-01-28T18:37:05.251Z,2.58
2024-01-28T18:39:32.368Z,2.13
2024-01-28T18:42:00.294Z,2.10
2024-01-28T18:44:27.230Z,1.90
2024-01-28T18:46:53.686Z,2.03
2024-01-28T18:49:22.759Z,2.47
2024-01-28T18:51:49.351Z,1.90
2024-01-28T18:54:15.848Z,1.83
2024-01-28T18:56:42.416Z,2.10
2024-01-28T18:59:10.185Z,1.75
2024-01-28T19:01:37.685Z,1.63
2024-01-28T19:04:04.564Z,1.80
2024-01-28T19:06:31.784Z,2.13
2024-01-28T19:08:59.485Z,2.10
2024-01-28T19:11:26.373Z,2.30
2024-01-28T19:13:53.181Z,1.70
2024-01-28T19:16:19.919Z,2.00
2024-01-28T19:18:47.836Z,1.63
2024-01-28T19:21:15.467Z,1.63
2024-01-28T19:23:43.891Z,1.73
2024-01-28T19:26:12.357Z,1.63
2024-01-28T19:28:39.208Z,1.80
2024-01-28T19:31:05.809Z,1.60
2024-01-28T19:33:34.946Z,1.83
2024-01-28T19:36:02.019Z,2.00
2024-01-28T19:38:28.851Z,2.00
2024-01-28T19:40:55.514Z,1.70
2024-01-28T19:43:22.043Z,1.80
2024-01-28T19:45:48.661Z,1.70
2024-01-28T19:48:16.475Z,1.73
2024-01-28T19:50:43.203Z,1.70
2024-01-28T19:53:09.708Z,2.00
2024-01-28T19:55:36.889Z,1.95
2024-01-28T19:58:04.932Z,1.50
2024-01-28T20:00:31.797Z,1.70
2024-01-28T20:02:58.923Z,1.85
2024-01-28T20:05:25.578Z,1.83
2024-01-28T20:07:52.087Z,2.17
2024-01-28T20:10:18.806Z,1.93
2024-01-28T20:12:45.387Z,2.05
2024-01-28T20:15:11.895Z,2.20
2024-01-28T20:17:38.449Z,1.80
2024-01-28T20:20:05.871Z,2.00
2024-01-28T20:22:32.502Z,1.80
2024-01-28T20:24:59.992Z,2.25
2024-01-28T20:27:26.780Z,1.90
2024-01-28T20:29:53.564Z,1.92
2024-01-28T20:32:20.073Z,2.55
2024-01-28T20:34:46.778Z,2.70
2024-01-28T20:37:13.360Z,2.28
2024-01-28T20:39:39.912Z,2.13
2024-01-28T20:42:06.891Z,2.45
2024-01-28T20:44:33.763Z,2.30
2024-01-28T20:47:01.550Z,2.13
2024-01-28T20:49:28.101Z,2.30
2024-01-28T20:51:54.629Z,2.53
2024-01-28T20:54:21.233Z,2.00
2024-01-28T20:56:47.846Z,1.92
2024-01-28T20:59:14.428Z,2.40
2024-01-28T21:01:40.921Z,1.98
2024-01-28T21:04:07.441Z,2.10
2024-01-28T21:06:34.054Z,2.08
2024-01-28T21:09:00.744Z,1.90
2024-01-28T21:11:27.230Z,2.20
2024-01-28T21:13:53.773Z,2.20
2024-01-28T21:16:20.188Z,2.45
2024-01-28T21:18:46.780Z,2.03
2024-01-28T21:21:13.325Z,2.10
2024-01-28T21:23:40.063Z,2.40
2024-01-28T21:26:06.594Z,1.95
2024-01-28T21:28:33.113Z,2.35
2024-01-28T21:30:59.846Z,2.22
2024-01-28T21:33:26.674Z,2.30
2024-01-28T21:35:53.342Z,2.23
2024-01-28T21:38:19.870Z,2.15
2024-01-28T21:40:46.355Z,2.45
2024-01-28T21:43:15.183Z,2.78
2024-01-28T21:45:41.902Z,2.58
2024-01-28T21:48:08.676Z,2.10
2024-01-28T21:50:35.199Z,2.72
2024-01-28T21:53:02.305Z,2.45
2024-01-28T21:55:28.801Z,2.22
2024-01-28T21:57:55.331Z,2.35
2024-01-28T22:00:21.972Z,2.27
2024-01-28T22:02:48.590Z,2.38
2024-01-28T22:05:15.599Z,1.90
2024-01-28T22:07:42.521Z,2.35
2024-01-28T22:10:12.046Z,2.33
2024-01-28T22:12:38.579Z,2.37
2024-01-28T22:15:05.600Z,2.47
2024-01-28T22:17:32.088Z,2.60
2024-01-28T22:19:58.577Z,2.50
2024-01-28T22:22:25.063Z,1.95
2024-01-28T22:24:52.265Z,2.20
2024-01-28T22:27:19.720Z,2.45
2024-01-28T22:29:46.187Z,2.30
2024-01-28T22:32:13.272Z,2.28
2024-01-28T22:34:43.746Z,2.15
2024-01-28T22:37:10.372Z,2.30
2024-01-28T22:39:36.999Z,2.40
2024-01-28T22:42:03.631Z,1.80
2024-01-28T22:44:30.150Z,2.65
2024-01-28T22:46:56.583Z,2.50
2024-01-28T22:49:23.319Z,2.20
2024-01-28T22:51:50.010Z,2.35
2024-01-28T22:54:16.509Z,2.30
2024-01-28T22:56:42.930Z,2.88
2024-01-28T22:59:10.853Z,2.65
2024-01-28T23:01:37.314Z,2.30
2024-01-28T23:04:04.253Z,2.53
2024-01-28T23:06:31.105Z,2.50
2024-01-28T23:08:57.615Z,2.58
2024-01-28T23:11:24.118Z,2.63
2024-01-28T23:13:51.405Z,2.30
2024-01-28T23:16:17.999Z,2.47
2024-01-28T23:18:44.663Z,2.13
2024-01-28T23:21:11.160Z,2.25
2024-01-28T23:23:37.661Z,2.40
2024-01-28T23:26:04.293Z,2.37
2024-01-28T23:28:30.724Z,2.50
2024-01-28T23:30:58.166Z,2.45
2024-01-28T23:33:24.789Z,2.40
2024-01-28T23:35:51.435Z,2.45
2024-01-28T23:38:18.995Z,2.20
2024-01-28T23:40:45.606Z,2.22
2024-01-28T23:43:12.130Z,2.40
2024-01-28T23:45:38.727Z,2.33
2024-01-28T23:48:05.465Z,2.17
2024-01-28T23:50:31.940Z,2.53
2024-01-28T23:52:58.375Z,2.88
2024-01-28T23:55:24.889Z,2.40
2024-01-28T23:57:51.429Z,2.47
